Time;durP1;ratioP1;P1;durP2;ratioP2;P2;SDS_P1;SDS_P2;PMS_P1;PMS_P2;Temp;Humidity;BMP_temperature;BMP_pressure;BME280_temperature;BME280_humidity;BME280_pressure;Samples;Min_cycle;Max_cycle;Signal;HPM_P1;HPM_P2
2022/01/15 00:01:31;;;;;;;108.87;36.47;;;;;;;0.15;90.38;101914.56;4955840;29;20813;-80
2022/01/15 00:03:56;;;;;;;85.43;35.50;;;;;;;0.17;90.80;101920.59;4938760;29;20445;-79
2022/01/15 00:06:22;;;;;;;97.45;35.55;;;;;;;0.22;90.36;101911.22;4955664;29;20398;-79
2022/01/15 00:08:47;;;;;;;86.27;33.90;;;;;;;0.23;90.55;101904.06;4954805;29;20410;-80
2022/01/15 00:11:12;;;;;;;79.67;35.23;;;;;;;0.25;90.97;101902.91;4946396;28;20414;-80
2022/01/15 00:13:40;;;;;;;74.17;34.17;;;;;;;0.28;90.63;101899.97;4954152;29;20896;-79
2022/01/15 00:16:12;;;;;;;100.93;36.13;;;;;;;0.34;90.62;101899.38;4938159;29;20418;-79
2022/01/15 00:19:01;;;;;;;78.78;35.88;;;;;;;0.34;90.09;101899.38;4955428;29;20413;-79
2022/01/15 00:21:26;;;;;;;88.18;33.30;;;;;;;0.30;89.86;101902.47;4946696;29;20414;-79
2022/01/15 00:23:52;;;;;;;92.13;33.30;;;;;;;0.34;89.67;101896.72;4955439;29;20390;-80
2022/01/15 00:26:18;;;;;;;72.53;34.25;;;;;;;0.30;89.61;101891.81;4953394;28;20421;-79
2022/01/15 00:28:43;;;;;;;83.82;32.90;;;;;;;0.24;89.63;101903.03;4947113;28;20871;-80
2022/01/15 00:31:09;;;;;;;81.27;34.83;;;;;;;0.22;89.38;101900.53;4950678;29;20398;-79
2022/01/15 00:33:34;;;;;;;70.23;30.90;;;;;;;0.21;89.99;101898.00;4955330;29;20488;-80
2022/01/15 00:35:59;;;;;;;74.10;31.60;;;;;;;0.15;89.83;101891.44;4954834;29;20410;-80
2022/01/15 00:38:25;;;;;;;69.63;31.67;;;;;;;0.21;89.50;101895.34;4954963;28;20755;-79
2022/01/15 00:40:50;;;;;;;70.27;32.53;;;;;;;0.09;89.57;101892.00;4952983;28;20457;-79
2022/01/15 00:43:16;;;;;;;71.20;31.63;;;;;;;0.06;90.08;101892.28;4955213;29;20406;-80
2022/01/15 00:45:41;;;;;;;76.20;32.20;;;;;;;0.03;90.25;101887.25;4954623;29;20414;-79
2022/01/15 00:48:07;;;;;;;91.80;33.33;;;;;;;0.07;90.24;101887.81;4955161;29;20402;-80
2022/01/15 00:50:32;;;;;;;78.37;33.27;;;;;;;0.07;90.30;101877.16;4954149;28;20571;-80
2022/01/15 00:52:57;;;;;;;68.32;32.05;;;;;;;0.15;90.41;101878.09;4955177;29;20402;-80
2022/01/15 00:55:23;;;;;;;73.87;32.77;;;;;;;0.11;89.66;101878.50;4953245;28;20484;-80
2022/01/15 00:57:48;;;;;;;64.83;31.50;;;;;;;0.11;89.92;101878.50;4954883;29;20902;-80
2022/01/15 01:00:20;;;;;;;88.97;32.53;;;;;;;0.08;89.80;101871.66;4954801;29;20406;-80
2022/01/15 01:02:46;;;;;;;78.88;31.42;;;;;;;0.13;89.78;101869.41;4954334;29;20407;-80
2022/01/15 01:05:12;;;;;;;86.37;31.67;;;;;;;-0.06;89.57;101874.75;4950242;29;20409;-80
2022/01/15 01:07:37;;;;;;;92.80;31.17;;;;;;;-0.08;89.86;101879.38;4936725;28;20405;-80
2022/01/15 01:13:27;;;;;;;64.80;28.83;;;;;;;0.02;90.76;101880.22;4954058;29;20405;-80
2022/01/15 01:23:48;;;;;;;63.45;28.67;;;;;;;0.11;90.04;101875.84;4952688;28;20747;-80
2022/01/15 01:26:37;;;;;;;57.25;28.27;;;;;;;0.11;89.38;101882.03;4954431;29;20400;-80
2022/01/15 01:29:23;;;;;;;49.83;26.57;;;;;;;0.02;88.73;101887.38;4940702;29;20472;-80
2022/01/15 01:31:56;;;;;;;53.15;27.10;;;;;;;-0.08;89.10;101880.25;4954218;29;20394;-80
2022/01/15 01:34:25;;;;;;;48.97;26.10;;;;;;;-0.21;89.64;101879.69;4953649;29;20453;-80
2022/01/15 01:39:21;;;;;;;56.25;26.23;;;;;;;-0.30;89.97;101877.88;4944524;29;20956;-80
2022/01/15 01:42:08;;;;;;;51.28;27.17;;;;;;;-0.18;89.48;101871.41;4942931;29;20417;-80
2022/01/15 01:44:39;;;;;;;46.72;26.40;;;;;;;-0.18;89.26;101871.41;4938676;29;20406;-79
2022/01/15 01:47:12;;;;;;;58.47;27.67;;;;;;;-0.31;89.66;101875.31;4947403;28;20443;-80
2022/01/15 01:49:38;;;;;;;56.05;27.63;;;;;;;-0.21;89.58;101861.03;4947729;29;25168;-79
2022/01/15 01:52:04;;;;;;;51.10;27.02;;;;;;;-0.16;88.80;101865.91;4953021;29;20409;-80
2022/01/15 01:54:29;;;;;;;51.45;26.77;;;;;;;-0.23;88.88;101868.31;4953285;29;20762;-81
2022/01/15 01:56:55;;;;;;;45.03;25.90;;;;;;;-0.17;89.04;101878.44;4953734;29;20873;-81
2022/01/15 01:59:21;;;;;;;47.97;26.38;;;;;;;-0.16;89.29;101876.56;4953211;29;20925;-80
2022/01/15 02:01:46;;;;;;;52.15;26.45;;;;;;;-0.21;89.09;101868.19;4951328;28;20456;-80
2022/01/15 02:04:12;;;;;;;54.85;26.60;;;;;;;-0.17;88.75;101867.78;4937153;29;20814;-80
2022/01/15 02:06:38;;;;;;;42.58;24.73;;;;;;;-0.12;88.56;101870.84;4953793;29;20418;-80
2022/01/15 02:09:07;;;;;;;49.40;27.58;;;;;;;-0.16;88.00;101865.91;4936455;29;20414;-80
2022/01/15 02:11:33;;;;;;;47.83;26.52;;;;;;;-0.18;88.75;101851.91;4953886;28;20417;-80
2022/01/15 02:13:59;;;;;;;54.03;26.90;;;;;;;-0.18;88.25;101857.25;4953571;29;20808;-80
2022/01/15 02:16:24;;;;;;;50.38;25.40;;;;;;;-0.34;88.84;101862.28;4953846;29;20874;-80
2022/01/15 02:18:53;;;;;;;48.63;23.97;;;;;;;-0.37;89.03;101863.41;4953164;29;20422;-80
2022/01/15 02:23:50;;;;;;;50.73;25.40;;;;;;;-0.56;88.92;101861.56;4952543;28;20412;-79
2022/01/15 02:26:19;;;;;;;51.03;27.13;;;;;;;-0.50;90.16;101854.88;4953342;29;20405;-80
2022/01/15 02:29:01;;;;;;;56.47;25.92;;;;;;;-0.35;89.33;101847.28;4952693;29;20402;-80
2022/01/15 02:31:28;;;;;;;46.55;25.45;;;;;;;-0.27;88.94;101847.44;4953352;29;20417;-80
2022/01/15 02:33:56;;;;;;;51.38;26.25;;;;;;;-0.19;88.99;101850.22;4951509;28;20406;-80
2022/01/15 02:36:31;;;;;;;56.95;25.88;;;;;;;-0.22;88.19;101840.69;4953381;29;20916;-80
2022/01/15 02:38:57;;;;;;;51.00;27.35;;;;;;;-0.44;89.11;101846.31;4952710;29;20422;-81
2022/01/15 02:41:34;;;;;;;53.83;26.40;;;;;;;-0.44;89.13;101856.13;4953155;29;20412;-80
2022/01/15 02:44:01;;;;;;;50.65;27.67;;;;;;;-0.39;89.31;101844.06;4952943;29;20525;-80
2022/01/15 02:48:56;;;;;;;53.50;28.40;;;;;;;-0.25;88.57;101834.81;4933544;28;20771;-80
2022/01/15 02:51:24;;;;;;;58.70;28.38;;;;;;;-0.35;88.67;101836.63;4953115;29;20398;-80
2022/01/15 02:53:55;;;;;;;50.85;25.90;;;;;;;-0.31;89.19;101830.88;4953086;29;20405;-80
2022/01/15 02:56:31;;;;;;;52.78;27.13;;;;;;;-0.30;88.63;101821.94;4949436;28;20421;-80
2022/01/15 02:58:57;;;;;;;68.47;27.80;;;;;;;-0.31;88.79;101820.25;4938169;29;20425;-79
2022/01/15 03:01:22;;;;;;;51.60;26.97;;;;;;;-0.37;88.73;101825.28;4943566;28;20418;-79
2022/01/15 03:03:48;;;;;;;58.33;27.95;;;;;;;-0.40;88.48;101818.44;4953001;29;20866;-80
2022/01/15 03:06:16;;;;;;;51.23;27.07;;;;;;;-0.60;89.30;101827.38;4953003;29;20394;-80
2022/01/15 03:08:45;;;;;;;54.15;27.38;;;;;;;-0.55;89.55;101838.44;4953066;29;20485;-80
2022/01/15 03:11:11;;;;;;;57.25;27.90;;;;;;;-0.56;89.82;101818.16;4951973;29;20413;-80
2022/01/15 03:13:38;;;;;;;59.33;28.13;;;;;;;-0.38;89.32;101820.94;4954523;28;20410;-80
2022/01/15 03:16:08;;;;;;;59.25;28.30;;;;;;;-0.38;89.39;101820.94;4954303;28;20419;-79
2022/01/15 03:18:33;;;;;;;50.53;26.63;;;;;;;-0.42;89.71;101819.53;4956697;29;20421;-80
2022/01/15 03:20:59;;;;;;;56.73;28.83;;;;;;;-0.47;88.99;101819.97;4956275;29;20751;-79
2022/01/15 03:23:24;;;;;;;60.03;27.73;;;;;;;-0.47;89.49;101803.16;4956230;29;20410;-79
2022/01/15 03:25:49;;;;;;;56.92;27.98;;;;;;;-0.37;89.30;101803.97;4956503;29;20639;-80
2022/01/15 03:28:15;;;;;;;69.97;28.23;;;;;;;-0.35;88.84;101810.00;4956351;29;20402;-80
2022/01/15 03:30:40;;;;;;;58.17;28.70;;;;;;;-0.46;89.07;101808.31;4938495;29;20473;-80
2022/01/15 03:33:06;;;;;;;81.67;30.33;;;;;;;-0.49;89.01;101805.13;4956143;29;20406;-80
2022/01/15 03:35:32;;;;;;;59.63;30.13;;;;;;;-0.55;89.33;101801.19;4956359;29;20438;-79
2022/01/15 03:37:58;;;;;;;59.10;29.67;;;;;;;-0.39;89.09;101801.44;4956139;29;20431;-80
2022/01/15 03:40:23;;;;;;;57.30;29.80;;;;;;;-0.41;89.11;101798.09;4956243;29;20874;-79
2022/01/15 03:42:48;;;;;;;55.20;28.40;;;;;;;-0.28;89.27;101795.97;4956210;29;20425;-80
2022/01/15 03:45:15;;;;;;;60.57;30.77;;;;;;;-0.37;88.32;101796.00;4954209;28;20500;-80
2022/01/15 03:47:45;;;;;;;62.50;29.95;;;;;;;-0.44;89.02;101794.88;4956142;29;20465;-80
2022/01/15 03:50:11;;;;;;;57.50;30.50;;;;;;;-0.43;89.03;101788.56;4956060;29;20494;-80
2022/01/15 03:52:36;;;;;;;60.33;30.90;;;;;;;-0.40;88.68;101786.47;4955686;29;20409;-80
2022/01/15 03:55:03;;;;;;;56.27;30.67;;;;;;;-0.41;89.12;101786.59;4955821;28;20421;-80
2022/01/15 03:57:29;;;;;;;64.88;30.15;;;;;;;-0.47;88.87;101779.19;4955970;29;20413;-79
2022/01/15 03:59:54;;;;;;;57.90;30.17;;;;;;;-0.33;89.23;101778.75;4953909;28;20992;-80
2022/01/15 04:02:19;;;;;;;65.67;31.37;;;;;;;-0.46;88.94;101778.19;4943736;28;20420;-79
2022/01/15 04:04:45;;;;;;;61.78;30.73;;;;;;;-0.43;89.01;101770.78;4938368;29;20406;-79
2022/01/15 04:07:10;;;;;;;65.22;31.33;;;;;;;-0.53;89.16;101767.28;4955688;29;20481;-79
2022/01/15 04:09:35;;;;;;;65.80;31.57;;;;;;;-0.46;89.63;101757.72;4955336;29;20500;-79
2022/01/15 04:12:01;;;;;;;61.37;32.50;;;;;;;-0.36;89.41;101760.41;4940772;29;20414;-80
2022/01/15 04:14:26;;;;;;;59.37;31.63;;;;;;;-0.32;89.20;101761.75;4954336;28;20512;-79
2022/01/15 04:16:52;;;;;;;58.60;31.23;;;;;;;-0.32;89.14;101751.97;4938598;29;20418;-79
2022/01/15 04:19:17;;;;;;;59.90;31.13;;;;;;;-0.31;89.05;101752.81;4954837;29;20422;-79
2022/01/15 04:21:42;;;;;;;55.13;30.63;;;;;;;-0.31;88.92;101752.81;4955523;29;20870;-80
2022/01/15 04:24:08;;;;;;;57.77;31.03;;;;;;;-0.33;88.41;101762.78;4955418;28;20433;-79
2022/01/15 04:26:33;;;;;;;55.33;30.93;;;;;;;-0.39;89.23;101757.97;4955114;29;20445;-80
2022/01/15 04:29:04;;;;;;;54.03;30.67;;;;;;;-0.46;89.00;101757.72;4954122;28;20885;-79
2022/01/15 04:31:47;;;;;;;51.22;31.80;;;;;;;-0.44;89.31;101761.09;4955538;29;20415;-79
2022/01/15 04:34:19;;;;;;;55.38;32.05;;;;;;;-0.38;89.32;101754.34;4955001;29;20421;-80
2022/01/15 04:36:44;;;;;;;55.47;30.60;;;;;;;-0.44;89.31;101758.44;4955085;29;20753;-80
2022/01/15 04:39:11;;;;;;;57.75;31.90;;;;;;;-0.41;89.35;101755.47;4955168;29;20414;-79
2022/01/15 04:41:37;;;;;;;54.58;30.90;;;;;;;-0.32;88.82;101745.78;4934524;28;20445;-79
2022/01/15 04:44:05;;;;;;;54.23;31.97;;;;;;;-0.36;88.62;101745.22;4950060;28;20578;-79
2022/01/15 04:46:30;;;;;;;52.37;30.40;;;;;;;-0.44;88.89;101749.59;4947890;29;20398;-80
2022/01/15 04:48:56;;;;;;;53.08;30.70;;;;;;;-0.53;89.25;101744.13;4954964;29;20746;-79
2022/01/15 04:51:21;;;;;;;54.17;30.70;;;;;;;-0.58;89.29;101735.75;4954991;29;20413;-79
2022/01/15 04:53:46;;;;;;;49.23;29.50;;;;;;;-0.65;89.65;101739.09;4954107;29;20512;-79
2022/01/15 04:56:11;;;;;;;53.87;30.53;;;;;;;-0.62;89.90;101755.63;4957481;28;20440;-79
2022/01/15 04:58:37;;;;;;;48.53;30.13;;;;;;;-0.49;89.13;101752.69;4954751;29;20422;-79
2022/01/15 05:01:02;;;;;;;52.20;29.83;;;;;;;-0.43;89.27;101749.47;4950212;29;20407;-79
2022/01/15 05:03:27;;;;;;;48.50;29.90;;;;;;;-0.42;88.92;101758.28;4954493;28;20491;-79
2022/01/15 05:05:53;;;;;;;46.77;28.67;;;;;;;-0.54;88.88;101755.78;4954543;28;20410;-79
2022/01/15 05:08:18;;;;;;;48.83;29.07;;;;;;;-0.52;89.43;101758.28;4954857;29;20402;-79
2022/01/15 05:10:47;;;;;;;49.57;30.10;;;;;;;-0.54;89.10;101752.28;4953570;28;20808;-79
2022/01/15 05:13:14;;;;;;;50.72;29.77;;;;;;;-0.65;89.22;101753.25;4954603;29;20456;-79
2022/01/15 05:15:42;;;;;;;48.45;27.40;;;;;;;-0.70;88.93;101749.34;4953808;28;20410;-79
2022/01/15 05:18:08;;;;;;;45.88;28.02;;;;;;;-0.62;89.01;101754.78;4954396;29;20445;-80
2022/01/15 05:20:33;;;;;;;48.17;28.80;;;;;;;-0.48;89.10;101750.84;4954345;28;20802;-80
2022/01/15 05:22:58;;;;;;;50.57;27.43;;;;;;;-0.66;88.26;101758.75;4928197;29;20493;-79
2022/01/15 05:25:24;;;;;;;46.73;29.03;;;;;;;-0.49;88.60;101760.66;4943495;29;20881;-79
2022/01/15 05:27:51;;;;;;;46.90;29.40;;;;;;;-0.58;88.38;101766.84;4953853;28;20405;-79
2022/01/15 05:30:16;;;;;;;49.83;29.85;;;;;;;-0.65;88.52;101763.91;4952661;28;20398;-79
2022/01/15 05:32:41;;;;;;;48.93;28.67;;;;;;;-0.66;88.62;101758.75;4961609;28;20503;-79
2022/01/15 05:35:07;;;;;;;47.05;28.65;;;;;;;-0.78;88.38;101765.16;4964437;28;20409;-79
2022/01/15 05:37:33;;;;;;;49.00;28.38;;;;;;;-0.85;89.22;101762.22;4951598;28;20762;-80
2022/01/15 05:39:58;;;;;;;43.77;27.53;;;;;;;-0.78;88.73;101752.69;4953062;29;20447;-79
2022/01/15 05:42:24;;;;;;;48.10;29.27;;;;;;;-0.77;88.29;101754.38;4939754;29;20934;-78
2022/01/15 05:44:49;;;;;;;47.53;28.92;;;;;;;-0.87;88.77;101755.38;4953682;28;20406;-79
2022/01/15 05:47:15;;;;;;;45.73;28.27;;;;;;;-0.93;88.66;101762.09;4953541;28;20414;-79
2022/01/15 05:49:40;;;;;;;51.17;28.53;;;;;;;-0.92;88.29;101765.59;4953839;29;20413;-79
2022/01/15 05:52:06;;;;;;;46.77;28.53;;;;;;;-0.86;88.95;101757.91;4950212;29;20413;-78
2022/01/15 05:54:31;;;;;;;47.90;27.90;;;;;;;-0.87;88.44;101766.00;4952811;29;20509;-79
2022/01/15 05:56:56;;;;;;;47.93;28.10;;;;;;;-0.77;88.93;101767.69;4953800;29;20897;-79
2022/01/15 05:59:22;;;;;;;46.63;27.37;;;;;;;-0.78;88.73;101765.16;4953433;29;20422;-79
2022/01/15 06:01:47;;;;;;;47.35;29.05;;;;;;;-0.83;88.03;101757.63;4953481;29;20402;-78
2022/01/15 06:04:13;;;;;;;47.80;28.67;;;;;;;-0.81;88.32;101762.78;4936595;29;20397;-79
2022/01/15 06:06:38;;;;;;;48.25;27.88;;;;;;;-0.91;88.32;101757.47;4953038;28;20417;-79
2022/01/15 06:09:03;;;;;;;46.33;27.77;;;;;;;-0.89;88.83;101752.00;4953250;29;20405;-79
2022/01/15 06:11:30;;;;;;;48.63;28.93;;;;;;;-0.85;88.50;101750.72;4953268;29;20406;-79
2022/01/15 06:13:56;;;;;;;44.65;28.20;;;;;;;-0.82;88.55;101747.78;4953587;29;20402;-78
2022/01/15 06:16:23;;;;;;;48.45;27.70;;;;;;;-0.72;88.40;101757.47;4953793;29;20842;-79
2022/01/15 06:18:49;;;;;;;45.55;28.15;;;;;;;-0.66;88.29;101758.75;4952401;28;20457;-78
2022/01/15 06:21:14;;;;;;;46.78;27.65;;;;;;;-0.73;87.66;101758.47;4953294;29;20438;-79
2022/01/15 06:23:39;;;;;;;47.78;29.45;;;;;;;-0.67;88.69;101752.56;4953309;29;20901;-79
2022/01/15 06:26:05;;;;;;;49.60;28.90;;;;;;;-0.59;87.43;101757.16;4953152;29;20461;-79
2022/01/15 06:28:30;;;;;;;51.70;29.57;;;;;;;-0.51;86.98;101757.31;4953058;29;20413;-79
2022/01/15 06:30:56;;;;;;;48.53;28.63;;;;;;;-0.53;87.55;101754.78;4936166;29;20420;-79
2022/01/15 06:33:21;;;;;;;47.27;27.40;;;;;;;-0.56;87.35;101755.06;4952333;28;20425;-78
2022/01/15 06:35:46;;;;;;;52.07;28.37;;;;;;;-0.61;87.74;101743.16;4949143;28;20475;-79
2022/01/15 06:38:12;;;;;;;46.13;28.63;;;;;;;-0.69;87.84;101740.38;4949945;29;20424;-78
2022/01/15 06:40:37;;;;;;;54.33;29.77;;;;;;;-0.66;87.95;101742.75;4934928;29;21037;-79
2022/01/15 06:43:03;;;;;;;55.80;29.67;;;;;;;-0.61;87.94;101746.69;4947883;29;20935;-78
2022/01/15 06:45:29;;;;;;;47.53;28.40;;;;;;;-0.44;87.48;101738.94;4950622;29;20500;-78
2022/01/15 06:47:55;;;;;;;50.33;29.42;;;;;;;-0.44;86.80;101736.28;4940920;29;20423;-79
2022/01/15 06:50:22;;;;;;;53.58;31.80;;;;;;;-0.53;87.75;101733.47;4954172;29;20400;-79
2022/01/15 06:52:48;;;;;;;48.50;29.57;;;;;;;-0.51;88.27;101730.69;4938730;29;20428;-79
2022/01/15 06:55:13;;;;;;;52.87;29.23;;;;;;;-0.52;87.54;101731.66;4956715;28;20885;-79
2022/01/15 06:57:39;;;;;;;54.57;29.40;;;;;;;-0.48;87.79;101724.22;4956917;29;20784;-79
2022/01/15 07:00:06;;;;;;;46.83;27.73;;;;;;;-0.56;87.82;101722.31;4955903;28;20429;-78
2022/01/15 07:02:32;;;;;;;50.67;29.45;;;;;;;-0.58;88.05;101737.56;4956044;29;20464;-79
2022/01/15 07:04:57;;;;;;;55.13;28.47;;;;;;;-0.54;88.29;101729.16;4955989;29;20421;-79
2022/01/15 07:07:23;;;;;;;57.35;30.67;;;;;;;-0.41;88.00;101728.00;4956938;29;20397;-78
2022/01/15 07:09:48;;;;;;;50.08;29.38;;;;;;;-0.45;87.71;101727.44;4956556;29;20398;-79
2022/01/15 07:12:13;;;;;;;58.40;29.98;;;;;;;-0.48;87.89;101733.06;4956766;29;20397;-79
2022/01/15 07:14:39;;;;;;;63.53;34.63;;;;;;;-0.47;88.22;101716.13;4954820;29;20810;-79
2022/01/15 07:17:04;;;;;;;61.03;32.50;;;;;;;-0.45;87.85;101718.63;4956615;29;20485;-79
2022/01/15 07:19:31;;;;;;;52.72;30.08;;;;;;;-0.41;87.96;101712.88;4956545;29;20540;-78
2022/01/15 07:21:56;;;;;;;54.58;31.40;;;;;;;-0.35;87.92;101720.28;4956727;29;20743;-79
2022/01/15 07:24:22;;;;;;;58.07;31.07;;;;;;;-0.35;88.55;101722.94;4956847;29;20405;-79
2022/01/15 07:26:47;;;;;;;52.22;30.60;;;;;;;-0.30;87.90;101718.03;4953962;29;20433;-78
2022/01/15 07:29:16;;;;;;;57.25;32.63;;;;;;;-0.34;88.05;101715.81;4954840;28;20810;-79
2022/01/15 07:31:44;;;;;;;52.55;29.52;;;;;;;-0.29;87.97;101710.88;4956015;29;20409;-79
2022/01/15 07:34:10;;;;;;;52.15;28.88;;;;;;;-0.16;88.00;101717.56;4952779;28;20409;-79
2022/01/15 07:36:35;;;;;;;53.10;30.48;;;;;;;-0.15;87.75;101710.41;4948841;28;20406;-78
2022/01/15 07:39:01;;;;;;;57.38;31.15;;;;;;;-0.19;86.99;101703.69;4962467;28;20826;-79
2022/01/15 07:41:27;;;;;;;54.90;30.27;;;;;;;-0.22;87.73;101717.31;4933863;28;20425;-78
2022/01/15 07:43:52;;;;;;;54.95;30.40;;;;;;;-0.23;88.39;101716.47;4955348;28;20421;-79
2022/01/15 07:46:17;;;;;;;53.97;30.83;;;;;;;-0.15;87.89;101719.25;4953199;28;20418;-78
2022/01/15 07:48:43;;;;;;;49.43;29.40;;;;;;;-0.18;87.82;101722.22;4956169;29;20402;-79
2022/01/15 07:51:08;;;;;;;49.23;29.60;;;;;;;-0.11;87.44;101722.47;4961353;28;20390;-78
2022/01/15 07:53:34;;;;;;;51.30;30.60;;;;;;;-0.13;87.53;101727.09;4954581;28;20429;-79
2022/01/15 07:55:59;;;;;;;49.28;29.10;;;;;;;-0.18;87.91;101721.38;4952351;28;20429;-79
2022/01/15 07:58:24;;;;;;;51.20;30.20;;;;;;;-0.15;87.89;101719.25;4952736;29;20418;-78
2022/01/15 08:00:50;;;;;;;51.53;29.87;;;;;;;-0.20;88.22;101716.16;4952245;28;20418;-79
2022/01/15 08:03:15;;;;;;;53.07;29.80;;;;;;;-0.21;88.51;101713.66;4953277;28;20401;-78
2022/01/15 08:05:40;;;;;;;53.07;30.63;;;;;;;-0.12;88.24;101716.28;4941166;29;20900;-77
2022/01/15 08:08:06;;;;;;;51.67;30.37;;;;;;;-0.09;87.90;101717.81;4955574;29;20445;-78
2022/01/15 08:10:31;;;;;;;49.05;29.30;;;;;;;-0.04;88.06;101724.41;4954822;29;20797;-78
2022/01/15 08:12:57;;;;;;;51.17;29.90;;;;;;;-0.07;87.91;101708.69;4951378;28;20430;-78
2022/01/15 08:15:22;;;;;;;53.57;29.53;;;;;;;0.01;87.70;101715.97;4948373;28;20416;-79
2022/01/15 08:17:48;;;;;;;51.23;29.47;;;;;;;0.09;88.36;101712.56;4951094;28;20410;-77
2022/01/15 08:20:14;;;;;;;54.33;30.77;;;;;;;0.13;87.26;101706.81;4955833;28;20426;-79
2022/01/15 08:22:40;;;;;;;50.95;29.63;;;;;;;0.09;87.61;101709.91;4951766;28;20458;-78
2022/01/15 08:25:07;;;;;;;50.92;30.55;;;;;;;0.04;87.57;101714.81;4939665;29;20406;-78
2022/01/15 08:27:32;;;;;;;53.45;31.45;;;;;;;-0.04;88.39;101703.09;4954375;28;20442;-78
2022/01/15 08:29:57;;;;;;;56.30;32.47;;;;;;;0.06;88.21;101704.88;4955044;29;20441;-78
2022/01/15 08:32:23;;;;;;;49.73;30.37;;;;;;;0.03;88.40;101702.50;4955344;29;20401;-79
2022/01/15 08:34:48;;;;;;;48.70;29.30;;;;;;;0.13;88.34;101711.31;4954739;28;20407;-78
2022/01/15 08:37:13;;;;;;;48.40;29.45;;;;;;;0.21;88.18;101708.72;4944410;28;20412;-77
2022/01/15 08:39:39;;;;;;;49.47;29.47;;;;;;;0.23;87.71;101714.78;4954967;28;20444;-78
2022/01/15 08:42:07;;;;;;;46.27;28.70;;;;;;;0.12;87.93;101714.94;4955338;28;20422;-78
2022/01/15 08:44:33;;;;;;;49.80;29.50;;;;;;;0.19;87.90;101721.38;4954755;29;20531;-79
2022/01/15 08:47:01;;;;;;;50.60;29.38;;;;;;;0.24;87.60;101716.44;4954627;28;20777;-77
2022/01/15 08:49:29;;;;;;;52.17;29.20;;;;;;;0.36;87.28;101707.28;4954949;29;20838;-79
2022/01/15 08:51:54;;;;;;;48.53;27.90;;;;;;;0.35;87.10;101709.09;4952903;28;20428;-78
2022/01/15 08:54:19;;;;;;;44.03;27.75;;;;;;;0.39;86.76;101714.97;4954018;28;20410;-79
2022/01/15 08:56:45;;;;;;;46.73;28.93;;;;;;;0.28;86.83;101717.81;4940960;29;20398;-78
2022/01/15 08:59:10;;;;;;;45.50;28.63;;;;;;;0.37;87.00;101727.59;4954868;28;20429;-78
2022/01/15 09:01:36;;;;;;;45.70;28.47;;;;;;;0.42;86.94;101714.66;4958541;28;20408;-78
2022/01/15 09:04:01;;;;;;;44.08;27.00;;;;;;;0.39;86.14;101722.97;4952132;28;20431;-77
2022/01/15 09:06:27;;;;;;;43.20;27.48;;;;;;;0.31;86.63;101720.19;4955803;28;20536;-79
2022/01/15 09:08:53;;;;;;;41.42;28.48;;;;;;;0.43;86.93;101719.00;4954947;28;20448;-78
2022/01/15 09:11:18;;;;;;;41.47;27.30;;;;;;;0.36;86.08;101710.75;4954371;28;20889;-78
2022/01/15 09:13:44;;;;;;;48.63;28.23;;;;;;;0.37;86.37;101711.59;4953662;28;20414;-78
2022/01/15 09:16:09;;;;;;;42.60;28.45;;;;;;;0.42;86.81;101717.34;4954150;28;20406;-79
2022/01/15 09:18:35;;;;;;;44.83;28.95;;;;;;;0.41;86.22;101699.66;4954250;28;20414;-77
2022/01/15 09:21:02;;;;;;;52.42;33.35;;;;;;;0.55;86.17;101703.66;4954625;29;20932;-78
2022/01/15 09:23:27;;;;;;;47.47;30.80;;;;;;;0.43;86.15;101700.31;4955882;28;20402;-79
2022/01/15 09:25:53;;;;;;;43.40;27.60;;;;;;;0.43;86.59;101705.66;4951263;28;20413;-79
2022/01/15 09:31:02;;;;;;;43.85;29.42;;;;;;;0.53;86.25;101704.63;4958029;28;20404;-79
2022/01/15 09:33:27;;;;;;;44.07;30.40;;;;;;;0.59;86.08;101700.53;4958397;28;20397;-79
2022/01/15 09:35:52;;;;;;;49.73;30.63;;;;;;;0.55;86.10;101704.50;4942094;28;20403;-79
2022/01/15 09:38:18;;;;;;;45.07;29.67;;;;;;;0.51;85.93;101701.28;4962272;28;20456;-79
2022/01/15 09:40:44;;;;;;;44.00;28.67;;;;;;;0.47;85.76;101699.03;4955576;28;20769;-79
2022/01/15 09:43:12;;;;;;;44.55;28.08;;;;;;;0.56;86.16;101692.00;4950489;28;20410;-78
2022/01/15 09:45:39;;;;;;;46.95;29.23;;;;;;;0.56;86.29;101700.00;4952320;28;20790;-79
2022/01/15 09:48:06;;;;;;;49.00;29.97;;;;;;;0.52;86.37;101683.44;4948384;28;20571;-79
2022/01/15 09:50:35;;;;;;;47.03;28.63;;;;;;;0.56;86.39;101692.81;4947357;28;20444;-77
2022/01/15 09:53:00;;;;;;;53.00;29.60;;;;;;;0.63;86.77;101683.22;4959254;28;20409;-78
2022/01/15 09:55:26;;;;;;;50.80;29.97;;;;;;;0.66;86.08;101682.91;4957359;28;20813;-79
2022/01/15 09:57:53;;;;;;;50.00;30.33;;;;;;;0.69;86.34;101669.28;4954694;28;20412;-78
2022/01/15 10:00:19;;;;;;;50.38;31.15;;;;;;;0.71;86.20;101669.97;4931181;29;20430;-79
2022/01/15 10:02:47;;;;;;;48.20;29.67;;;;;;;0.73;85.96;101670.66;4940996;28;20851;-78
2022/01/15 10:05:13;;;;;;;47.10;29.58;;;;;;;0.74;86.43;101672.34;4951061;28;20425;-79
2022/01/15 10:07:54;;;;;;;47.88;29.67;;;;;;;0.89;85.99;101670.81;4944463;28;20453;-78
2022/01/15 10:10:21;;;;;;;47.55;29.70;;;;;;;0.91;86.09;101668.84;4952067;29;20414;-78
2022/01/15 10:12:47;;;;;;;49.33;29.63;;;;;;;0.93;85.68;101671.34;4932056;29;20425;-78
2022/01/15 10:15:13;;;;;;;46.42;28.52;;;;;;;0.77;86.17;101663.19;4933403;29;20425;-78
2022/01/15 10:17:39;;;;;;;46.55;28.77;;;;;;;0.82;85.83;101659.09;4954967;28;20437;-77
2022/01/15 10:20:12;;;;;;;46.33;29.10;;;;;;;0.85;85.96;101650.78;4935634;29;20450;-78
2022/01/15 10:22:46;;;;;;;46.28;29.05;;;;;;;0.89;85.98;101652.13;4950251;28;20418;-77
2022/01/15 10:25:21;;;;;;;49.60;29.50;;;;;;;0.92;86.13;101648.34;4946091;28;20418;-77
2022/01/15 10:27:50;;;;;;;50.40;29.23;;;;;;;0.96;85.80;101639.00;4921767;29;20409;-78
2022/01/15 10:30:17;;;;;;;50.13;29.17;;;;;;;1.02;86.10;101638.41;4953773;28;20907;-77
2022/01/15 10:33:05;;;;;;;49.33;30.13;;;;;;;1.15;85.85;101641.53;4952469;28;20418;-78
2022/01/15 10:35:37;;;;;;;46.97;30.37;;;;;;;1.18;85.30;101643.88;4953046;29;20506;-78
2022/01/15 10:38:07;;;;;;;53.22;32.17;;;;;;;1.20;85.35;101627.69;4932190;29;20405;-78
2022/01/15 10:40:46;;;;;;;46.67;29.10;;;;;;;1.15;85.48;101630.00;4952382;28;20493;-77
2022/01/15 10:43:18;;;;;;;50.65;29.60;;;;;;;1.11;85.64;101617.94;4946409;28;20424;-77
2022/01/15 10:45:51;;;;;;;48.72;29.42;;;;;;;1.20;85.74;101620.53;4952669;28;20422;-78
2022/01/15 10:48:29;;;;;;;49.80;28.80;;;;;;;1.16;85.68;101624.50;4963708;28;20837;-77
2022/01/15 10:51:05;;;;;;;53.80;31.05;;;;;;;1.25;85.15;101620.06;4954357;28;20448;-77
2022/01/15 10:53:42;;;;;;;49.60;30.30;;;;;;;1.19;85.42;101612.66;4953297;28;20406;-78
2022/01/15 10:56:10;;;;;;;47.67;29.57;;;;;;;1.31;85.48;101611.44;4953037;29;21017;-78
2022/01/15 10:58:36;;;;;;;50.15;30.88;;;;;;;1.27;85.43;101612.72;4952060;28;20484;-78
2022/01/15 11:01:02;;;;;;;49.67;30.40;;;;;;;1.22;85.70;101605.16;4952129;29;20405;-78
2022/01/15 11:03:41;;;;;;;50.40;30.05;;;;;;;1.18;85.77;101606.50;4953078;29;20430;-77
2022/01/15 11:06:07;;;;;;;54.20;31.77;;;;;;;1.25;85.98;101606.72;4954705;28;20553;-77
2022/01/15 11:08:37;;;;;;;48.58;30.02;;;;;;;1.36;86.01;101604.59;4945996;28;20774;-78
2022/01/15 11:11:06;;;;;;;47.75;30.65;;;;;;;1.42;85.99;101592.44;4955398;28;20412;-78
2022/01/15 11:13:37;;;;;;;48.25;31.60;;;;;;;1.49;85.27;101598.84;4952828;28;20409;-77
2022/01/15 11:16:07;;;;;;;52.97;32.30;;;;;;;1.48;85.26;101586.50;4953163;29;20394;-77
2022/01/15 11:18:35;;;;;;;51.53;32.13;;;;;;;1.48;85.57;101587.31;4953889;28;20410;-78
2022/01/15 11:21:04;;;;;;;50.00;31.90;;;;;;;1.54;85.39;101594.72;4950330;28;20504;-78
2022/01/15 11:23:31;;;;;;;49.45;31.38;;;;;;;1.55;85.35;101592.84;4940291;28;20502;-77
2022/01/15 11:25:59;;;;;;;49.22;31.23;;;;;;;1.60;85.08;101598.56;4942224;28;20436;-79
2022/01/15 11:28:27;;;;;;;50.67;30.63;;;;;;;1.57;84.85;101604.25;4946302;28;20528;-77
2022/01/15 11:30:57;;;;;;;52.72;32.55;;;;;;;1.47;85.16;101588.31;4952647;28;20492;-79
2022/01/15 11:33:28;;;;;;;56.58;34.42;;;;;;;1.52;85.27;101587.81;4943089;28;20437;-79